Time;durP1;ratioP1;P1;durP2;ratioP2;P2;SDS_P1;SDS_P2;PMS_P1;PMS_P2;Temp;Humidity;BMP_temperature;BMP_pressure;BME280_temperature;BME280_humidity;BME280_pressure;Samples;Min_cycle;Max_cycle;Signal;HPM_P1;HPM_P2
2022/02/28 00:01:54;;;;;;;9.57;7.25;;;1.50;67.70;;;;;;5070642;28;20294;-89
2022/02/28 00:04:21;;;;;;;12.30;7.70;;;;;;;;;;5070817;28;20662;-89
2022/02/28 00:06:48;;;;;;;10.40;7.75;;;1.30;68.20;;;;;;5070719;28;20211;-89
2022/02/28 00:09:15;;;;;;;15.00;8.68;;;1.20;72.00;;;;;;5070770;28;20329;-90
2022/02/28 00:11:43;;;;;;;11.82;7.95;;;;;;;;;;5071098;28;20206;-89
2022/02/28 00:14:10;;;;;;;13.55;8.98;;;1.20;69.10;;;;;;5070569;28;20192;-89
2022/02/28 00:16:37;;;;;;;9.32;7.20;;;;;;;;;;5069785;28;20207;-89
2022/02/28 00:19:05;;;;;;;9.38;7.45;;;1.00;81.20;;;;;;5070332;28;20191;-89
2022/02/28 00:21:33;;;;;;;10.48;7.30;;;;;;;;;;5069772;28;20203;-88
2022/02/28 00:24:00;;;;;;;9.98;6.97;;;0.90;82.10;;;;;;5070425;28;20218;-89
2022/02/28 00:26:28;;;;;;;12.40;8.30;;;3.00;75.90;;;;;;5070402;28;20231;-89
2022/02/28 00:28:55;;;;;;;13.23;6.43;;;0.60;72.60;;;;;;5070655;28;20291;-89
2022/02/28 00:31:23;;;;;;;11.32;8.80;;;;;;;;;;5071145;28;20196;-89
2022/02/28 00:33:50;;;;;;;12.30;9.40;;;;;;;;;;5070449;28;20203;-88
2022/02/28 00:36:18;;;;;;;10.18;8.40;;;0.00;74.00;;;;;;5072364;28;20199;-88
2022/02/28 00:38:46;;;;;;;12.00;7.97;;;;;;;;;;5074522;28;20204;-89
2022/02/28 00:41:14;;;;;;;7.63;6.80;;;-0.10;75.40;;;;;;5061058;28;20214;-89
2022/02/28 00:43:41;;;;;;;11.43;7.82;;;;;;;;;;5067965;28;20203;-88
2022/02/28 00:46:08;;;;;;;12.45;8.48;;;;;;;;;;5065222;28;20827;-88
2022/02/28 00:48:36;;;;;;;10.80;7.32;;;;;;;;;;5069586;28;20207;-88
2022/02/28 00:51:03;;;;;;;10.35;6.70;;;;;;;;;;5069626;28;20203;-89
2022/02/28 00:53:32;;;;;;;13.55;8.00;;;0.00;75.60;;;;;;5069272;28;20203;-88
2022/02/28 00:55:59;;;;;;;14.57;7.55;;;;;;;;;;5069445;28;20275;-89
2022/02/28 00:58:27;;;;;;;8.80;7.65;;;;;;;;;;5069513;28;20211;-89
2022/02/28 01:00:54;;;;;;;10.20;7.97;;;;;;;;;;5069721;28;20203;-88
2022/02/28 01:03:21;;;;;;;12.85;7.80;;;;;;;;;;5068489;28;20600;-89
2022/02/28 01:05:49;;;;;;;10.35;8.57;;;;;;;;;;5069545;28;20223;-89
2022/02/28 01:08:16;;;;;;;13.77;8.93;;;;;;;;;;5069140;28;20200;-89
2022/02/28 01:10:46;;;;;;;11.35;8.23;;;0.00;75.20;;;;;;5059127;28;20200;-89
2022/02/28 01:13:13;;;;;;;10.10;7.63;;;;;;;;;;5065010;28;20200;-90
2022/02/28 01:15:42;;;;;;;7.57;6.82;;;0.00;75.20;;;;;;5068936;28;20654;-89
2022/02/28 01:18:09;;;;;;;11.25;9.13;;;;;;;;;;5068936;28;20302;-89
2022/02/28 01:20:37;;;;;;;9.10;7.45;;;;;;;;;;5065913;28;20206;-90
2022/02/28 01:23:05;;;;;;;12.23;8.43;;;-0.10;75.90;;;;;;5069219;28;20195;-88
2022/02/28 01:25:32;;;;;;;15.90;8.52;;;;;;;;;;5069063;28;20206;-88
2022/02/28 01:28:01;;;;;;;11.23;8.10;;;-0.10;87.50;;;;;;5068815;28;20282;-88
2022/02/28 01:30:29;;;;;;;11.93;9.70;;;;;;;;;;5068189;28;20567;-89
2022/02/28 01:32:58;;;;;;;9.73;7.30;;;;;;;;;;5069015;28;20199;-89
2022/02/28 01:35:25;;;;;;;11.52;7.65;;;;;;;;;;5068455;28;20684;-89
2022/02/28 01:37:53;;;;;;;9.25;6.72;;;;;;;;;;5068629;28;20282;-88
2022/02/28 01:40:22;;;;;;;11.10;8.05;;;-0.20;76.50;;;;;;5056113;28;20247;-90
2022/02/28 01:42:51;;;;;;;13.10;8.90;;;;;;;;;;5066658;28;20252;-89
2022/02/28 01:45:23;;;;;;;13.65;8.48;;;-0.30;77.00;;;;;;5068066;28;20555;-89
2022/02/28 01:47:51;;;;;;;12.32;8.90;;;;;;;;;;5068087;28;20231;-88
2022/02/28 01:50:18;;;;;;;9.32;7.25;;;;;;;;;;5068019;28;20222;-89
2022/02/28 01:52:48;;;;;;;10.35;8.15;;;;;;;;;;5067882;28;20638;-88
2022/02/28 01:55:18;;;;;;;11.57;8.57;;;-0.50;77.80;;;;;;5069232;28;20207;-88
2022/02/28 01:57:46;;;;;;;9.63;7.22;;;;;;;;;;5068242;28;20199;-88
2022/02/28 02:00:16;;;;;;;13.02;8.15;;;-0.40;89.30;;;;;;5068715;28;20187;-89
2022/02/28 02:02:45;;;;;;;8.90;7.15;;;-0.40;77.90;;;;;;5067841;28;20196;-89
2022/02/28 02:05:13;;;;;;;14.40;7.55;;;;;;;;;;5067792;28;20494;-88
2022/02/28 02:07:40;;;;;;;10.65;7.53;;;-0.50;77.90;;;;;;5068049;28;20227;-88
2022/02/28 02:10:09;;;;;;;9.45;7.78;;;-1.20;77.70;;;;;;5067627;28;20688;-88
2022/02/28 02:12:38;;;;;;;10.55;8.02;;;;;;;;;;5068383;28;20615;-89
2022/02/28 02:15:07;;;;;;;13.77;9.30;;;-0.60;89.60;;;;;;5068003;28;20670;-87
2022/02/28 02:17:36;;;;;;;12.15;8.90;;;-0.90;80.20;;;;;;5067578;28;20257;-88
2022/02/28 02:20:06;;;;;;;11.65;7.65;;;-0.90;81.50;;;;;;5067671;28;20206;-87
2022/02/28 02:22:34;;;;;;;10.23;7.63;;;;;;;;;;5068118;28;20206;-89
2022/02/28 02:25:01;;;;;;;12.60;7.57;;;-1.10;91.60;;;;;;5067738;28;20662;-87
2022/02/28 02:27:29;;;;;;;11.00;8.00;;;;;;;;;;5068358;28;20339;-88
2022/02/28 02:29:58;;;;;;;7.75;6.57;;;;;;;;;;5067881;28;20685;-87
2022/02/28 02:32:26;;;;;;;10.63;7.50;;;;;;;;;;5068229;28;20628;-89
2022/02/28 02:34:53;;;;;;;10.50;7.90;;;;;;;;;;5061091;28;20254;-87
2022/02/28 02:37:23;;;;;;;15.00;8.55;;;-0.90;81.90;;;;;;5067802;28;20573;-87
2022/02/28 02:39:51;;;;;;;14.40;8.50;;;-0.80;83.00;;;;;;5066030;28;20253;-87
2022/02/28 02:42:19;;;;;;;12.93;8.65;;;;;;;;;;5054994;28;20187;-87
2022/02/28 02:44:46;;;;;;;12.43;8.40;;;;;;;;;;5067770;28;20249;-87
2022/02/28 02:47:13;;;;;;;12.77;8.30;;;-1.00;82.00;;;;;;5067250;28;20329;-89
2022/02/28 02:49:40;;;;;;;10.45;8.10;;;-1.10;91.60;;;;;;5067066;28;20734;-88
2022/02/28 02:52:08;;;;;;;13.93;8.52;;;-1.00;82.50;;;;;;5067187;28;20599;-88
2022/02/28 02:54:36;;;;;;;10.90;7.82;;;-1.00;81.70;;;;;;5067750;28;20214;-89
2022/02/28 02:57:04;;;;;;;14.18;8.93;;;;;;;;;;5067802;28;20214;-88
2022/02/28 02:59:31;;;;;;;10.43;7.93;;;;;;;;;;5071732;28;20202;-88
2022/02/28 03:01:58;;;;;;;7.70;6.75;;;;;;;;;;5071779;28;20418;-87
2022/02/28 03:04:25;;;;;;;13.25;8.75;;;-1.00;95.20;;;;;;5060933;28;20222;-87
2022/02/28 03:06:53;;;;;;;12.38;7.75;;;;;;;;;;5071752;28;20219;-86
2022/02/28 03:09:20;;;;;;;12.55;8.65;;;;;;;;;;5060340;28;20227;-87
2022/02/28 03:11:49;;;;;;;9.80;7.70;;;-1.00;95.50;;;;;;5071226;28;20286;-87
2022/02/28 03:14:16;;;;;;;12.98;7.90;;;;;;;;;;5071250;28;20690;-88
2022/02/28 03:16:43;;;;;;;8.02;6.70;;;;;;;;;;5071031;28;20714;-88
2022/02/28 03:19:10;;;;;;;10.25;7.63;;;;;;;;;;5071745;28;20198;-87
2022/02/28 03:21:38;;;;;;;11.57;7.72;;;;;;;;;;5071493;28;20199;-89
2022/02/28 03:24:05;;;;;;;11.00;7.95;;;-1.20;84.70;;;;;;5071512;28;20198;-88
2022/02/28 03:26:33;;;;;;;9.27;7.88;;;;;;;;;;5071274;28;20215;-88
2022/02/28 03:29:01;;;;;;;11.18;7.63;;;-1.10;84.50;;;;;;5067802;28;20768;-87
2022/02/28 03:31:28;;;;;;;12.75;8.60;;;;;;;;;;5049277;28;20677;-89
2022/02/28 03:33:56;;;;;;;11.20;8.68;;;;;;;;;;5059118;28;20685;-86
2022/02/28 03:36:23;;;;;;;9.68;7.22;;;;;;;;;;5070734;28;20670;-87
2022/02/28 03:38:50;;;;;;;17.02;7.60;;;;;;;;;;5071006;28;20250;-88
2022/02/28 03:41:17;;;;;;;8.85;7.93;;;;;;;;;;5056902;28;20200;-88
2022/02/28 03:43:44;;;;;;;13.75;8.88;;;;;;;;;;5069640;28;20268;-87
2022/02/28 03:46:13;;;;;;;12.25;8.02;;;-1.50;86.50;;;;;;5070663;28;20303;-88
2022/02/28 03:48:40;;;;;;;8.85;7.50;;;;;;;;;;5071218;28;20649;-88
2022/02/28 03:51:09;;;;;;;12.30;7.68;;;-1.60;87.10;;;;;;5063446;28;20636;-86
2022/02/28 03:53:36;;;;;;;11.57;7.25;;;-1.70;87.00;;;;;;5070618;28;20199;-88
2022/02/28 03:56:03;;;;;;;9.43;7.45;;;;;;;;;;5071018;28;20199;-89
2022/02/28 03:58:35;;;;;;;10.10;7.53;;;-1.30;92.70;;;;;;5070775;28;20643;-88
2022/02/28 04:01:02;;;;;;;11.00;7.90;;;;;;;;;;5070925;28;20199;-86
2022/02/28 04:03:30;;;;;;;8.82;7.85;;;-1.40;84.20;;;;;;5070704;28;20199;-86
2022/02/28 04:05:58;;;;;;;12.10;8.00;;;;;;;;;;5071144;28;20204;-87
2022/02/28 04:08:25;;;;;;;12.57;8.70;;;;;;;;;;5070040;28;20227;-89
2022/02/28 04:10:52;;;;;;;12.50;8.20;;;;;;;;;;5068954;28;20191;-87
2022/02/28 04:13:19;;;;;;;11.25;7.35;;;-0.80;96.20;;;;;;5070969;28;20222;-86
2022/02/28 04:15:46;;;;;;;13.07;8.70;;;;;;;;;;5071081;28;20581;-87
2022/02/28 04:18:13;;;;;;;11.68;8.77;;;;;;;;;;5070875;28;20686;-87
2022/02/28 04:20:42;;;;;;;11.23;8.70;;;-1.50;85.00;;;;;;5070774;28;20564;-87
2022/02/28 04:23:09;;;;;;;17.02;9.73;;;;;;;;;;5070582;28;20198;-87
2022/02/28 04:25:36;;;;;;;11.52;8.05;;;;;;;;;;5062183;28;20223;-88
2022/02/28 04:28:03;;;;;;;11.10;8.02;;;;;;;;;;5051099;28;20650;-87
2022/02/28 04:30:30;;;;;;;9.10;7.68;;;-1.50;85.90;;;;;;5053606;28;20242;-87
2022/02/28 04:32:57;;;;;;;12.95;8.23;;;;;;;;;;5072698;28;20231;-86
2022/02/28 04:35:24;;;;;;;13.30;8.55;;;-1.60;86.10;;;;;;5070555;28;20284;-88
2022/02/28 04:37:53;;;;;;;9.18;8.00;;;-1.50;84.80;;;;;;5069280;28;20195;-88
2022/02/28 04:40:20;;;;;;;10.30;7.63;;;;;;;;;;5067864;28;20229;-87
2022/02/28 04:42:47;;;;;;;8.20;7.00;;;;;;;;;;5060778;28;20204;-87
2022/02/28 04:45:14;;;;;;;9.65;8.43;;;;;;;;;;5069721;28;20230;-88
2022/02/28 04:47:42;;;;;;;11.00;8.57;;;;;;;;;;5069623;28;20222;-86
2022/02/28 04:50:10;;;;;;;11.32;7.82;;;-1.50;85.20;;;;;;5069457;28;20198;-87
2022/02/28 04:52:37;;;;;;;9.98;7.85;;;;;;;;;;5068557;28;20272;-86
2022/02/28 04:55:06;;;;;;;14.07;8.98;;;-1.50;84.60;;;;;;5069133;28;20223;-86
2022/02/28 04:57:37;;;;;;;17.77;10.80;;;-1.50;85.60;;;;;;5069694;28;20645;-86
2022/02/28 05:00:05;;;;;;;12.88;9.60;;;-0.90;87.00;;;;;;5069556;28;20557;-87
2022/02/28 05:02:32;;;;;;;12.32;10.38;;;;;;;;;;5066374;28;20196;-86
2022/02/28 05:05:00;;;;;;;18.92;9.82;;;-1.20;93.10;;;;;;5061675;28;20291;-86
2022/02/28 05:07:27;;;;;;;13.50;10.23;;;;;;;;;;5069034;28;20234;-87
2022/02/28 05:09:54;;;;;;;14.05;8.90;;;;;;;;;;5069233;28;20642;-89
2022/02/28 05:12:23;;;;;;;9.43;8.23;;;-1.70;85.30;;;;;;5069538;28;20203;-87
2022/02/28 05:14:50;;;;;;;11.93;9.20;;;;;;;;;;5069203;28;20746;-88
2022/02/28 05:17:17;;;;;;;11.73;8.02;;;;;;;;;;5068795;28;20203;-85
2022/02/28 05:19:45;;;;;;;10.02;7.35;;;;;;;;;;5063669;28;20219;-88
2022/02/28 05:22:12;;;;;;;11.30;8.85;;;;;;;;;;5067672;28;20192;-88
2022/02/28 05:24:39;;;;;;;10.93;8.75;;;;;;;;;;5069141;28;20203;-86
2022/02/28 05:27:09;;;;;;;13.45;8.70;;;;;;;;;;5061858;28;20219;-87
2022/02/28 05:29:37;;;;;;;12.05;8.60;;;-1.90;86.20;;;;;;5061894;28;20253;-87
2022/02/28 05:32:05;;;;;;;13.50;9.40;;;-1.90;90.10;;;;;;5068561;28;20274;-88
2022/02/28 05:34:32;;;;;;;12.55;8.98;;;-1.80;86.90;;;;;;5068592;28;20239;-88
2022/02/28 05:37:00;;;;;;;12.57;8.90;;;;;;;;;;5068917;28;20252;-86
2022/02/28 05:39:27;;;;;;;14.80;9.77;;;;;;;;;;5068886;28;20221;-86
2022/02/28 05:41:54;;;;;;;12.13;9.18;;;-2.00;88.10;;;;;;5067963;28;20670;-88
2022/02/28 05:44:23;;;;;;;12.85;8.75;;;-2.30;89.60;;;;;;5068708;28;20210;-88
2022/02/28 05:46:52;;;;;;;12.02;9.25;;;-2.30;90.30;;;;;;5067821;28;20214;-87
2022/02/28 05:52:04;;;;;;;14.50;10.70;;;-2.20;90.70;;;;;;5063764;28;20211;-87
2022/02/28 05:54:37;;;;;;;14.30;9.02;;;-2.10;90.60;;;;;;5068125;28;20179;-89
2022/02/28 05:57:05;;;;;;;12.15;9.48;;;-2.20;96.00;;;;;;5067449;28;20223;-88
2022/02/28 05:59:32;;;;;;;13.23;9.20;;;;;;;;;;5068341;28;20670;-86
2022/02/28 06:02:04;;;;;;;15.40;8.50;;;-2.00;89.60;;;;;;5068278;28;20723;-88
2022/02/28 06:04:31;;;;;;;12.38;9.48;;;-1.80;95.50;;;;;;5064998;28;20192;-87
2022/02/28 06:06:58;;;;;;;13.48;8.60;;;;;;;;;;5066979;28;20196;-87
2022/02/28 06:09:25;;;;;;;14.40;9.98;;;;;;;;;;5067752;28;20233;-86
2022/02/28 06:11:55;;;;;;;18.50;9.48;;;-1.90;98.30;;;;;;5068136;28;20245;-86
2022/02/28 06:14:22;;;;;;;14.25;9.80;;;;;;;;;;5067800;28;20616;-87
2022/02/28 06:16:52;;;;;;;12.82;9.70;;;;;;;;;;5060945;28;20278;-87
2022/02/28 06:19:23;;;;;;;11.90;8.18;;;-1.80;87.70;;;;;;5068039;28;20219;-87
2022/02/28 06:21:52;;;;;;;17.38;10.25;;;-1.80;87.50;;;;;;5068791;28;20811;-86
2022/02/28 06:24:21;;;;;;;14.13;9.32;;;-1.80;88.60;;;;;;5067538;28;20558;-86
2022/02/28 06:26:51;;;;;;;16.85;10.07;;;;;;;;;;5068116;28;20203;-88
2022/02/28 06:29:18;;;;;;;16.10;10.80;;;;;;;;;;5067476;28;20262;-88
2022/02/28 06:31:46;;;;;;;12.05;9.27;;;;;;;;;;5068454;28;20191;-87
2022/02/28 06:34:13;;;;;;;14.50;10.10;;;;;;;;;;5067254;28;20294;-86
2022/02/28 06:36:44;;;;;;;15.63;9.82;;;-1.80;90.10;;;;;;5066803;28;20207;-87
2022/02/28 06:39:15;;;;;;;16.55;11.77;;;;;;;;;;5067889;28;20206;-88
2022/02/28 06:41:42;;;;;;;17.83;11.75;;;;;;;;;;5052008;28;20219;-89
2022/02/28 06:44:10;;;;;;;27.52;12.07;;;;;;;;;;5067981;28;20665;-88
2022/02/28 06:46:53;;;;;;;17.20;10.32;;;-1.70;88.60;;;;;;5067153;28;20578;-86
2022/02/28 06:49:26;;;;;;;20.30;11.35;;;;;;;;;;5066078;28;20667;-88
2022/02/28 06:51:54;;;;;;;19.17;10.18;;;-1.60;88.40;;;;;;5066713;28;20276;-85
2022/02/28 06:54:24;;;;;;;13.75;11.35;;;;;;;;;;5067919;28;20200;-86
2022/02/28 06:56:51;;;;;;;13.77;10.32;;;;;;;;;;5066933;28;20192;-86
2022/02/28 06:59:18;;;;;;;14.20;9.95;;;;;;;;;;5066540;28;20203;-86
2022/02/28 07:01:45;;;;;;;26.10;11.80;;;;;;;;;;5067586;28;20195;-85
2022/02/28 07:04:13;;;;;;;12.73;9.55;;;;;;;;;;5059931;28;20195;-87
2022/02/28 07:06:40;;;;;;;20.60;10.52;;;;;;;;;;5066134;28;20199;-86
2022/02/28 07:09:08;;;;;;;16.23;10.43;;;-1.50;90.50;;;;;;5043399;28;20882;-85
2022/02/28 07:11:38;;;;;;;22.52;11.57;;;-1.20;90.00;;;;;;5056244;28;20232;-85
2022/02/28 07:14:06;;;;;;;30.20;11.00;;;;;;;;;;5044710;28;20262;-87
2022/02/28 07:16:36;;;;;;;18.83;10.45;;;-1.10;89.80;;;;;;5065290;28;20507;-87
2022/02/28 07:19:06;;;;;;;30.52;12.30;;;-1.00;91.90;;;;;;5066799;28;20214;-86
2022/02/28 07:21:33;;;;;;;21.40;11.45;;;;;;;;;;5061292;28;20204;-85
2022/02/28 07:24:01;;;;;;;17.92;12.10;;;;;;;;;;5055988;28;20595;-85
2022/02/28 07:26:34;;;;;;;16.45;10.80;;;-0.30;89.10;;;;;;5066178;28;20199;-86
2022/02/28 07:29:05;;;;;;;17.42;11.02;;;-0.20;94.10;;;;;;5067332;28;20337;-85
2022/02/28 07:31:32;;;;;;;16.48;11.20;;;-0.10;89.40;;;;;;5067081;28;20253;-87
2022/02/28 07:34:00;;;;;;;11.65;9.93;;;;;;;;;;5066406;28;20260;-85
2022/02/28 07:36:26;;;;;;;20.88;11.38;;;0.30;93.30;;;;;;5066668;28;20207;-87
2022/02/28 07:38:54;;;;;;;17.27;11.05;;;;;;;;;;5066329;28;20200;-85
2022/02/28 07:41:21;;;;;;;13.25;10.65;;;0.40;91.30;;;;;;5066681;28;20226;-87
2022/02/28 07:43:50;;;;;;;15.50;10.82;;;1.50;88.80;;;;;;5056584;28;20291;-86
2022/02/28 07:46:17;;;;;;;15.43;10.43;;;;;;;;;;5069044;28;20226;-86
2022/02/28 07:48:47;;;;;;;16.13;11.90;;;0.80;83.00;;;;;;5069751;28;20309;-86
2022/02/28 07:51:14;;;;;;;14.73;10.98;;;0.90;91.30;;;;;;5064145;28;20270;-85
2022/02/28 07:53:41;;;;;;;14.07;10.80;;;1.00;86.20;;;;;;5070213;28;20207;-84
2022/02/28 07:56:11;;;;;;;17.55;11.55;;;;;;;;;;5068314;28;20246;-85
2022/02/28 07:58:39;;;;;;;16.10;11.77;;;;;;;;;;5070612;28;20332;-86
2022/02/28 08:01:08;;;;;;;20.35;12.68;;;1.50;79.70;;;;;;5068590;28;20290;-86
2022/02/28 08:03:35;;;;;;;15.88;10.70;;;1.10;93.00;;;;;;5063813;28;20223;-86
2022/02/28 08:06:02;;;;;;;18.02;12.18;;;2.00;93.80;;;;;;5069998;28;20252;-86
2022/02/28 08:08:29;;;;;;;16.65;10.95;;;1.70;92.60;;;;;;5061937;28;20258;-85
2022/02/28 08:10:58;;;;;;;15.00;11.85;;;1.70;80.40;;;;;;5070206;28;20207;-85
2022/02/28 08:13:25;;;;;;;17.35;10.85;;;;;;;;;;5060025;28;20252;-85
2022/02/28 08:15:52;;;;;;;23.55;13.80;;;2.00;78.50;;;;;;5070306;28;20195;-87
2022/02/28 08:18:25;;;;;;;15.35;10.10;;;2.10;79.30;;;;;;5053702;28;20208;-85
2022/02/28 08:20:52;;;;;;;17.98;10.60;;;2.50;77.30;;;;;;5069641;28;20210;-85
2022/02/28 08:23:19;;;;;;;16.75;10.48;;;2.40;76.50;;;;;;5069977;28;20204;-85
2022/02/28 08:25:46;;;;;;;14.25;10.68;;;2.40;85.40;;;;;;5051532;28;20207;-86
2022/02/28 08:28:13;;;;;;;17.05;11.73;;;2.50;75.10;;;;;;5049333;28;20220;-86
2022/02/28 08:30:42;;;;;;;18.83;11.23;;;2.50;75.70;;;;;;5066092;28;20234;-85
2022/02/28 08:33:09;;;;;;;15.85;10.68;;;2.80;75.00;;;;;;5069768;28;20234;-85
2022/02/28 08:35:39;;;;;;;15.35;10.60;;;2.90;72.90;;;;;;5069961;28;20211;-85
2022/02/28 08:38:06;;;;;;;14.75;10.60;;;2.90;73.80;;;;;;5065489;28;20636;-85
2022/02/28 08:40:33;;;;;;;16.10;11.13;;;2.90;73.80;;;;;;5061233;28;20258;-85
2022/02/28 08:43:03;;;;;;;11.77;8.98;;;2.90;74.60;;;;;;5061517;28;20535;-86
2022/02/28 08:45:30;;;;;;;17.27;11.30;;;3.00;74.40;;;;;;5060862;28;20252;-85
2022/02/28 08:47:57;;;;;;;12.93;9.93;;;3.30;71.70;;;;;;5065762;28;20199;-85
2022/02/28 08:50:24;;;;;;;15.98;10.43;;;3.40;71.20;;;;;;5060863;28;20282;-86
2022/02/28 08:52:52;;;;;;;11.85;9.10;;;3.50;70.60;;;;;;5050478;28;20236;-87
2022/02/28 08:55:19;;;;;;;13.02;10.40;;;3.70;78.30;;;;;;5066467;28;20233;-86
2022/02/28 08:57:46;;;;;;;14.95;9.77;;;3.50;71.20;;;;;;5068935;28;20203;-85
2022/02/28 09:00:17;;;;;;;14.57;9.80;;;3.60;71.60;;;;;;5069074;28;20273;-86
2022/02/28 09:02:45;;;;;;;12.75;9.40;;;3.80;77.60;;;;;;5064809;28;20294;-85
2022/02/28 09:05:12;;;;;;;11.18;8.50;;;4.10;68.50;;;;;;5066314;28;20682;-86
2022/02/28 09:07:42;;;;;;;11.88;9.32;;;4.00;76.30;;;;;;5068987;28;20207;-86
2022/02/28 09:10:13;;;;;;;13.13;9.80;;;3.50;76.80;;;;;;5068545;28;20223;-86
2022/02/28 09:12:40;;;;;;;16.00;9.95;;;4.40;71.10;;;;;;5061751;28;20383;-85
2022/02/28 09:15:08;;;;;;;12.90;9.88;;;4.30;73.80;;;;;;5056807;28;20200;-86
2022/02/28 09:17:35;;;;;;;11.98;9.40;;;4.20;65.50;;;;;;5049544;28;20706;-86
2022/02/28 09:20:03;;;;;;;21.20;8.65;;;4.50;64.00;;;;;;5069304;28;20654;-87
2022/02/28 09:22:30;;;;;;;15.80;8.70;;;4.50;64.70;;;;;;5069032;28;20214;-86
2022/02/28 09:24:57;;;;;;;12.70;8.40;;;4.50;63.40;;;;;;5067546;28;20254;-87
2022/02/28 09:27:27;;;;;;;12.75;9.63;;;4.70;63.00;;;;;;5067414;28;20199;-85
2022/02/28 09:29:54;;;;;;;15.60;9.27;;;4.70;64.50;;;;;;5069077;28;20260;-87
2022/02/28 09:32:21;;;;;;;10.90;8.30;;;4.70;64.10;;;;;;5068421;28;20192;-86
2022/02/28 09:34:48;;;;;;;14.15;9.73;;;4.60;64.40;;;;;;5068825;28;20218;-87
2022/02/28 09:37:15;;;;;;;21.27;9.48;;;4.70;64.20;;;;;;5067902;28;20205;-85
2022/02/28 09:39:42;;;;;;;12.20;8.68;;;5.00;63.60;;;;;;5060942;28;20243;-86
2022/02/28 09:42:09;;;;;;;14.82;9.82;;;5.10;63.90;;;;;;5068289;28;20234;-88
2022/02/28 09:44:37;;;;;;;11.15;9.25;;;5.10;63.50;;;;;;5068365;28;20203;-86
2022/02/28 09:47:06;;;;;;;10.68;8.45;;;5.10;64.80;;;;;;5067976;28;20199;-85
2022/02/28 09:49:34;;;;;;;12.63;8.50;;;5.10;61.80;;;;;;5067687;28;20646;-86
2022/02/28 09:52:01;;;;;;;10.73;8.65;;;5.20;63.30;;;;;;5067158;28;20605;-85
2022/02/28 09:54:28;;;;;;;11.77;8.40;;;5.30;68.90;;;;;;5067200;28;20219;-86
2022/02/28 09:56:55;;;;;;;15.15;8.90;;;5.30;61.10;;;;;;5067636;28;20260;-87
2022/02/28 09:59:22;;;;;;;11.48;8.85;;;5.40;61.60;;;;;;5067086;28;20669;-87
2022/02/28 10:01:50;;;;;;;12.98;7.95;;;5.40;61.00;;;;;;5068776;28;20206;-85
2022/02/28 10:04:18;;;;;;;13.48;8.50;;;5.50;71.00;;;;;;5063479;28;20249;-85
2022/02/28 10:06:46;;;;;;;15.60;8.90;;;5.30;62.00;;;;;;5046685;28;20223;-86
2022/02/28 10:09:18;;;;;;;8.68;7.68;;;5.40;61.30;;;;;;5049807;28;20219;-86
2022/02/28 10:11:48;;;;;;;11.48;8.57;;;5.50;61.70;;;;;;5068088;28;20593;-86
2022/02/28 10:14:16;;;;;;;11.82;8.48;;;5.60;60.60;;;;;;5067790;28;20199;-86
2022/02/28 10:16:45;;;;;;;10.00;8.93;;;5.80;58.70;;;;;;5063995;28;20231;-85
2022/02/28 10:19:15;;;;;;;10.30;8.65;;;5.70;59.30;;;;;;5054870;28;20218;-86
2022/02/28 10:21:45;;;;;;;13.45;8.23;;;5.90;68.40;;;;;;5066924;28;20199;-86
2022/02/28 10:24:13;;;;;;;14.00;9.52;;;5.80;59.60;;;;;;5067071;28;20270;-86
2022/02/28 10:26:41;;;;;;;10.80;8.80;;;5.80;59.50;;;;;;5066015;28;20203;-86
2022/02/28 10:29:10;;;;;;;11.70;9.10;;;5.90;58.20;;;;;;5065022;28;20659;-86
2022/02/28 10:31:39;;;;;;;9.85;8.13;;;5.90;58.00;;;;;;5057375;28;20254;-86
2022/02/28 10:34:15;;;;;;;12.23;8.95;;;5.90;58.80;;;;;;5067382;28;20243;-87
2022/02/28 10:36:45;;;;;;;11.48;8.57;;;5.80;58.70;;;;;;5080911;28;20476;-84
2022/02/28 10:39:12;;;;;;;13.00;9.45;;;5.90;58.40;;;;;;5082286;28;20231;-85
2022/02/28 10:41:41;;;;;;;11.52;8.70;;;5.90;58.20;;;;;;5067961;28;20238;-86
2022/02/28 10:44:11;;;;;;;11.52;8.20;;;5.90;58.30;;;;;;5066742;28;20203;-86
2022/02/28 10:46:42;;;;;;;12.90;9.35;;;6.00;58.80;;;;;;5067043;28;20195;-85
2022/02/28 10:49:15;;;;;;;12.40;9.45;;;6.00;58.30;;;;;;5067531;28;20233;-86
2022/02/28 10:51:51;;;;;;;13.77;9.93;;;6.10;57.70;;;;;;5057878;28;20682;-85
2022/02/28 10:54:22;;;;;;;14.45;9.20;;;6.20;58.10;;;;;;5054404;28;20200;-86
2022/02/28 10:56:59;;;;;;;16.80;9.93;;;6.20;58.00;;;;;;5058821;28;20258;-86
2022/02/28 10:59:28;;;;;;;13.02;9.48;;;6.20;57.60;;;;;;5058073;28;20304;-86
2022/02/28 11:01:56;;;;;;;12.35;9.15;;;6.10;57.40;;;;;;5073031;28;20284;-86
2022/02/28 11:04:36;;;;;;;15.07;10.20;;;6.10;57.50;;;;;;5062605;28;20708;-85
2022/02/28 11:07:05;;;;;;;15.18;8.93;;;6.20;57.90;;;;;;5066356;28;20234;-86
2022/02/28 11:09:34;;;;;;;11.95;9.15;;;6.20;58.30;;;;;;5066663;28;20242;-86
2022/02/28 11:12:26;;;;;;;16.75;10.45;;;6.30;58.60;;;;;;5067316;28;20214;-86
2022/02/28 11:14:56;;;;;;;12.23;10.43;;;6.40;58.50;;;;;;5066585;28;20195;-85
2022/02/28 11:17:25;;;;;;;15.90;11.13;;;6.40;58.60;;;;;;5067219;28;20267;-86
2022/02/28 11:19:54;;;;;;;14.88;11.15;;;6.40;58.00;;;;;;5060859;28;20203;-87
2022/02/28 11:22:22;;;;;;;14.05;9.77;;;6.50;57.90;;;;;;5051096;28;20250;-87
2022/02/28 11:24:49;;;;;;;14.43;10.02;;;6.40;57.90;;;;;;5066736;28;20200;-86
2022/02/28 11:27:17;;;;;;;15.68;11.75;;;6.40;58.90;;;;;;5070671;28;20203;-86
2022/02/28 11:29:44;;;;;;;15.25;11.20;;;6.60;57.90;;;;;;5070665;28;20214;-86
2022/02/28 11:32:11;;;;;;;16.33;10.02;;;6.50;57.80;;;;;;5071347;28;20292;-86
2022/02/28 11:34:39;;;;;;;14.85;9.98;;;6.40;57.70;;;;;;5068748;28;20203;-86
2022/02/28 11:37:08;;;;;;;12.77;11.23;;;6.50;57.90;;;;;;5070150;28;20284;-86
2022/02/28 11:39:40;;;;;;;12.90;10.57;;;6.40;58.20;;;;;;5070440;28;20206;-85
2022/02/28 11:42:09;;;;;;;13.30;10.55;;;6.50;58.50;;;;;;5050983;28;20211;-86
2022/02/28 11:44:37;;;;;;;12.52;9.82;;;6.50;58.10;;;;;;5061285;28;20204;-86
2022/02/28 11:47:13;;;;;;;16.93;11.30;;;6.70;58.70;;;;;;5050183;28;20824;-87
2022/02/28 11:49:42;;;;;;;13.13;9.70;;;6.80;57.90;;;;;;5066361;28;20672;-86
2022/02/28 11:52:31;;;;;;;11.85;9.50;;;6.80;57.00;;;;;;5063715;28;20700;-85
2022/02/28 11:55:03;;;;;;;12.93;9.30;;;6.80;56.90;;;;;;5070224;28;20207;-85
2022/02/28 11:57:51;;;;;;;9.85;7.78;;;7.00;56.40;;;;;;5068706;28;20203;-86
2022/02/28 12:00:22;;;;;;;11.15;9.27;;;6.80;59.00;;;;;;5050787;28;20291;-86
2022/02/28 12:02:50;;;;;;;10.20;8.90;;;7.00;55.00;;;;;;5061662;28;20512;-86
2022/02/28 12:05:39;;;;;;;12.80;9.25;;;6.90;59.50;;;;;;5070600;28;20199;-87
2022/02/28 12:08:17;;;;;;;14.60;10.00;;;7.00;55.30;;;;;;5068871;28;20211;-86
2022/02/28 12:10:55;;;;;;;14.02;8.88;;;7.20;55.20;;;;;;5051507;28;20763;-86
2022/02/28 12:13:35;;;;;;;12.95;10.35;;;7.10;54.30;;;;;;5067007;28;20198;-86
2022/02/28 12:16:08;;;;;;;12.90;9.25;;;7.10;54.20;;;;;;5070199;28;20308;-86
2022/02/28 12:18:35;;;;;;;11.73;8.73;;;7.00;53.80;;;;;;5068985;28;20249;-87
2022/02/28 12:21:09;;;;;;;14.70;10.07;;;7.10;54.10;;;;;;5070284;28;20683;-86
2022/02/28 12:23:48;;;;;;;11.05;8.77;;;7.20;54.20;;;;;;5053120;28;20257;-86
2022/02/28 12:26:15;;;;;;;12.88;9.57;;;7.30;54.30;;;;;;5066306;28;20191;-86
2022/02/28 12:28:47;;;;;;;13.80;9.80;;;7.40;54.70;;;;;;5069113;28;20230;-86
2022/02/28 12:31:19;;;;;;;12.77;10.10;;;7.40;54.40;;;;;;5069400;28;20231;-87
2022/02/28 12:34:10;;;;;;;11.18;8.80;;;7.40;58.90;;;;;;5069664;28;20207;-87
2022/02/28 12:36:39;;;;;;;12.77;8.35;;;7.40;54.20;;;;;;5046603;28;20547;-86
2022/02/28 12:39:11;;;;;;;15.13;10.27;;;7.40;54.30;;;;;;5057495;28;20230;-87
2022/02/28 12:41:40;;;;;;;13.05;9.43;;;7.40;53.70;;;;;;5069661;28;20200;-86
2022/02/28 12:44:12;;;;;;;13.73;8.90;;;7.50;54.00;;;;;;5069338;28;20200;-86
2022/02/28 12:46:42;;;;;;;13.13;9.23;;;7.50;53.60;;;;;;5062167;28;20589;-87
2022/02/28 12:49:10;;;;;;;13.00;8.60;;;7.40;53.40;;;;;;5065334;28;20254;-87
2022/02/28 12:51:39;;;;;;;11.77;8.75;;;7.60;52.30;;;;;;5057973;28;20284;-86
2022/02/28 12:54:10;;;;;;;13.07;7.82;;;7.40;52.30;;;;;;5069346;28;20299;-86
2022/02/28 12:56:46;;;;;;;16.67;8.55;;;7.40;52.20;;;;;;5068671;28;20633;-86
2022/02/28 12:59:13;;;;;;;10.73;8.20;;;7.50;51.50;;;;;;5069179;28;20198;-87
2022/02/28 13:01:40;;;;;;;11.40;8.68;;;7.50;51.70;;;;;;5069254;28;20195;-87
2022/02/28 13:04:09;;;;;;;11.55;8.55;;;7.70;51.50;;;;;;5068455;28;20225;-87
2022/02/28 13:06:38;;;;;;;11.82;8.00;;;7.50;51.30;;;;;;5068312;28;20680;-87
2022/02/28 13:09:08;;;;;;;11.52;8.40;;;7.60;51.80;;;;;;5068998;28;20199;-86
2022/02/28 13:11:37;;;;;;;11.88;8.25;;;7.60;51.20;;;;;;5068946;28;20235;-88
2022/02/28 13:14:06;;;;;;;14.73;8.50;;;7.60;51.60;;;;;;5068710;28;20246;-87
2022/02/28 13:16:37;;;;;;;10.80;8.43;;;7.70;49.80;;;;;;5068057;28;20261;-87
2022/02/28 13:19:08;;;;;;;13.82;8.18;;;7.70;49.50;;;;;;5068829;28;20587;-88
2022/02/28 13:21:38;;;;;;;11.07;8.05;;;7.80;48.40;;;;;;5068341;28;20627;-87
2022/02/28 13:24:12;;;;;;;10.50;7.45;;;7.90;48.70;;;;;;5063490;28;20281;-87
2022/02/28 13:26:40;;;;;;;12.70;7.85;;;8.00;48.30;;;;;;5048855;28;20287;-87